createdAt,value
2022-11-24T00:01:42.149Z,99343.75
2022-11-24T00:04:13.417Z,99350.19
2022-11-24T00:06:44.663Z,99344.59
2022-11-24T00:09:14.114Z,99347.75
2022-11-24T00:11:43.737Z,99353.88
2022-11-24T00:14:13.604Z,99354.69
2022-11-24T00:16:42.978Z,99366.28
2022-11-24T00:19:17.029Z,99362.59
2022-11-24T00:21:50.396Z,99368.41
2022-11-24T00:24:19.730Z,99364.03
2022-11-24T00:26:49.136Z,99365.38
2022-11-24T00:29:18.973Z,99373.72
2022-11-24T00:31:48.341Z,99373.06
2022-11-24T00:34:18.059Z,99375.94
2022-11-24T00:36:47.490Z,99383.56
2022-11-24T00:39:18.772Z,99387.13
2022-11-24T00:41:48.211Z,99392.28
2022-11-24T00:44:17.503Z,99394.81
2022-11-24T00:46:46.977Z,99399.66
2022-11-24T00:49:16.333Z,99397.16
2022-11-24T00:51:46.754Z,99398.19
2022-11-24T00:54:18.316Z,99393.09
2022-11-24T00:56:47.781Z,99395.13
2022-11-24T00:59:22.435Z,99389.84
2022-11-24T01:01:52.497Z,99396.75
2022-11-24T01:04:24.737Z,99400.50
2022-11-24T01:06:54.401Z,99404.69
2022-11-24T01:09:25.240Z,99408.34
2022-11-24T01:12:04.446Z,99406.50
2022-11-24T01:14:34.887Z,99408.34
2022-11-24T01:17:05.204Z,99418.72
2022-11-24T01:19:34.785Z,99417.53
2022-11-24T01:22:04.158Z,99420.50
2022-11-24T01:24:35.239Z,99422.13
2022-11-24T01:27:06.331Z,99423.75
2022-11-24T01:29:35.572Z,99421.75
2022-11-24T01:32:05.368Z,99434.72
2022-11-24T01:34:35.747Z,99435.81
2022-11-24T01:37:05.423Z,99434.41
2022-11-24T01:39:36.126Z,99427.28
2022-11-24T01:42:05.824Z,99428.91
2022-11-24T01:44:36.323Z,99431.44
2022-11-24T01:47:09.792Z,99433.78
2022-11-24T01:49:46.319Z,99439.06
2022-11-24T01:52:20.727Z,99443.13
2022-11-24T01:54:56.567Z,99445.03
2022-11-24T01:57:29.180Z,99437.91
2022-11-24T02:00:05.930Z,99437.69
2022-11-24T02:02:44.988Z,99434.25
2022-11-24T02:05:20.533Z,99440.53
2022-11-24T02:07:50.153Z,99450.69
2022-11-24T02:10:21.320Z,99450.69
2022-11-24T02:12:53.604Z,99449.06
2022-11-24T02:15:22.798Z,99463.63
2022-11-24T02:17:52.010Z,99476.56
2022-11-24T02:20:21.383Z,99479.31
2022-11-24T02:22:58.736Z,99480.78
2022-11-24T02:25:36.925Z,99476.19
2022-11-24T02:28:12.308Z,99481.28
2022-11-24T02:30:41.753Z,99485.25
2022-11-24T02:33:11.883Z,99479.25
2022-11-24T02:35:41.629Z,99487.16
2022-11-24T02:38:13.668Z,99479.00
2022-11-24T02:40:45.625Z,99482.06
2022-11-24T02:43:20.896Z,99488.50
2022-11-24T02:45:49.821Z,99488.28
2022-11-24T02:48:19.535Z,99497.25
2022-11-24T02:50:48.680Z,99503.47
2022-11-24T02:53:18.018Z,99498.78
2022-11-24T02:55:47.275Z,99503.47
2022-11-24T02:58:17.962Z,99504.16
2022-11-24T03:00:47.300Z,99500.97
2022-11-24T03:03:16.706Z,99503.09
2022-11-24T03:05:45.872Z,99497.38
2022-11-24T03:08:15.038Z,99499.44
2022-11-24T03:10:44.368Z,99500.16
2022-11-24T03:13:13.520Z,99499.00
2022-11-24T03:15:44.400Z,99491.56
2022-11-24T03:18:13.637Z,99498.91
2022-11-24T03:20:42.829Z,99501.06
2022-11-24T03:23:12.132Z,99496.66
2022-11-24T03:25:41.641Z,99512.88
2022-11-24T03:28:10.929Z,99503.19
2022-11-24T03:30:40.436Z,99509.88
2022-11-24T03:33:11.474Z,99512.47
2022-11-24T03:35:40.697Z,99510.66
2022-11-24T03:38:09.989Z,99511.56
2022-11-24T03:40:39.162Z,99525.19
2022-11-24T03:43:08.314Z,99518.56
2022-11-24T03:45:46.078Z,99522.00
2022-11-24T03:48:19.123Z,99523.84
2022-11-24T03:50:55.775Z,99524.75
2022-11-24T03:53:26.176Z,99530.00
2022-11-24T03:55:55.851Z,99531.84
2022-11-24T03:58:25.459Z,99530.97
2022-11-24T04:00:56.133Z,99532.59
2022-11-24T04:03:27.128Z,99525.47
2022-11-24T04:05:56.408Z,99527.72
2022-11-24T04:08:25.718Z,99528.25
2022-11-24T04:10:55.917Z,99539.31
2022-11-24T04:13:26.195Z,99537.47
2022-11-24T04:15:55.584Z,99542.78
2022-11-24T04:18:26.253Z,99542.34
2022-11-24T04:20:55.270Z,99546.72
2022-11-24T04:23:24.535Z,99542.53
2022-11-24T04:25:53.510Z,99545.09
2022-11-24T04:28:22.689Z,99542.63
2022-11-24T04:30:51.874Z,99545.88
2022-11-24T04:33:20.964Z,99547.81
2022-11-24T04:35:54.775Z,99549.41
2022-11-24T04:39:23.201Z,99551.03
2022-11-24T04:41:13.139Z,99560.53
2022-11-24T04:43:42.186Z,99556.34
2022-11-24T04:46:13.506Z,99556.38
2022-11-24T04:48:43.510Z,99561.28
2022-11-24T04:51:16.163Z,99565.44
2022-11-24T04:53:45.245Z,99557.84
2022-11-24T04:56:14.393Z,99577.25
2022-11-24T04:58:43.429Z,99569.19
2022-11-24T05:01:12.451Z,99579.81
2022-11-24T05:03:41.964Z,99580.50
2022-11-24T05:06:11.182Z,99581.00
2022-11-24T05:08:41.696Z,99577.25
2022-11-24T05:11:10.738Z,99577.97
2022-11-24T05:13:39.898Z,99583.72
2022-11-24T05:16:09.161Z,99588.13
2022-11-24T05:18:38.337Z,99597.38
2022-11-24T05:21:07.548Z,99597.31
2022-11-24T05:23:36.915Z,99604.75
2022-11-24T05:26:07.839Z,99601.09
2022-11-24T05:28:36.894Z,99606.19
2022-11-24T05:31:06.558Z,99610.13
2022-11-24T05:33:35.606Z,99609.66
2022-11-24T05:36:06.917Z,99606.72
2022-11-24T05:38:36.867Z,99617.56
2022-11-24T05:41:07.847Z,99623.34
2022-11-24T05:43:36.818Z,99620.81
2022-11-24T05:46:05.709Z,99635.34
2022-11-24T05:48:34.623Z,99636.09
2022-11-24T05:51:07.954Z,99649.22
2022-11-24T05:53:38.156Z,99649.47
2022-11-24T05:56:09.412Z,99655.94
2022-11-24T05:58:38.583Z,99664.47
2022-11-24T06:01:08.482Z,99668.19
2022-11-24T06:03:37.676Z,99675.53
2022-11-24T06:06:07.152Z,99684.50
2022-11-24T06:08:36.226Z,99682.25
2022-11-24T06:11:18.675Z,99682.75
2022-11-24T06:13:49.824Z,99694.03
2022-11-24T06:16:18.946Z,99687.81
2022-11-24T06:18:47.920Z,99687.09
2022-11-24T06:21:17.513Z,99699.59
2022-11-24T06:23:49.076Z,99690.53
2022-11-24T06:26:19.068Z,99687.03
2022-11-24T06:28:49.441Z,99688.88
2022-11-24T06:31:18.823Z,99692.56
2022-11-24T06:33:48.344Z,99695.78
2022-11-24T06:36:17.632Z,99701.31
2022-11-24T06:38:46.556Z,99695.50
2022-11-24T06:41:18.114Z,99685.59
2022-11-24T06:43:48.540Z,99698.50
2022-11-24T06:46:17.774Z,99697.56
2022-11-24T06:48:47.264Z,99703.31
2022-11-24T06:51:16.288Z,99704.47
2022-11-24T06:53:45.264Z,99716.47
2022-11-24T06:56:21.027Z,99703.50
2022-11-24T06:58:53.320Z,99710.19
2022-11-24T07:01:24.136Z,99712.47
2022-11-24T07:03:54.557Z,99712.28
2022-11-24T07:06:24.986Z,99718.19
2022-11-24T07:08:54.397Z,99710.28
2022-11-24T07:11:25.367Z,99720.97
2022-11-24T07:13:59.849Z,99722.75
2022-11-24T07:16:29.916Z,99720.41
2022-11-24T07:18:59.644Z,99723.44
2022-11-24T07:21:30.617Z,99723.88
2022-11-24T07:24:00.361Z,99719.94
2022-11-24T07:26:29.361Z,99715.50
2022-11-24T07:28:59.746Z,99724.06
2022-11-24T07:31:28.723Z,99721.53
2022-11-24T07:33:58.240Z,99718.97
2022-11-24T07:36:27.312Z,99731.16
2022-11-24T07:38:56.225Z,99724.44
2022-11-24T07:41:25.302Z,99728.06
2022-11-24T07:43:54.202Z,99731.69
2022-11-24T07:46:24.892Z,99727.78
2022-11-24T07:48:53.900Z,99726.41
2022-11-24T07:51:22.827Z,99731.75
2022-11-24T07:53:51.891Z,99737.84
2022-11-24T07:56:20.906Z,99727.47
2022-11-24T07:58:52.974Z,99729.59
2022-11-24T08:01:22.827Z,99735.13
2022-11-24T08:03:53.643Z,99737.22
2022-11-24T08:06:25.419Z,99732.34
2022-11-24T08:08:56.053Z,99733.25
2022-11-24T08:11:25.845Z,99738.34
2022-11-24T08:13:55.174Z,99737.47
2022-11-24T08:16:24.506Z,99738.34
2022-11-24T08:18:56.450Z,99748.94
2022-11-24T08:21:26.410Z,99746.66
2022-11-24T08:23:57.152Z,99748.56
2022-11-24T08:26:27.267Z,99745.78
2022-11-24T08:28:59.666Z,99750.88
2022-11-24T08:31:33.929Z,99751.75
2022-11-24T08:34:06.623Z,99757.81
2022-11-24T08:36:36.993Z,99761.03
2022-11-24T08:39:06.532Z,99771.19
2022-11-24T08:41:36.817Z,99766.13
2022-11-24T08:44:06.174Z,99765.19
2022-11-24T08:46:35.339Z,99776.72
2022-11-24T08:49:06.556Z,99775.09
2022-11-24T08:51:36.468Z,99781.91
2022-11-24T08:54:05.701Z,99780.69
2022-11-24T08:56:35.378Z,99789.94
2022-11-24T08:59:04.728Z,99785.50
2022-11-24T09:01:34.065Z,99785.72
2022-11-24T09:04:03.076Z,99797.25
2022-11-24T09:06:33.598Z,99797.53
2022-11-24T09:09:02.966Z,99802.22
2022-11-24T09:11:34.715Z,99805.47
2022-11-24T09:14:04.062Z,99805.44
2022-11-24T09:16:33.421Z,99811.19
2022-11-24T09:19:03.874Z,99809.59
2022-11-24T09:21:37.861Z,99815.13
2022-11-24T09:24:08.582Z,99811.00
2022-11-24T09:26:43.289Z,99824.66
2022-11-24T09:29:14.413Z,99816.63
2022-11-24T09:31:43.398Z,99825.88
2022-11-24T09:34:15.586Z,99825.38
2022-11-24T09:36:46.115Z,99824.91
2022-11-24T09:39:15.067Z,99821.69
2022-11-24T09:41:59.107Z,99823.31
2022-11-24T09:45:12.217Z,99824.50
2022-11-24T09:47:53.122Z,99826.34
2022-11-24T09:50:29.283Z,99827.75
2022-11-24T09:53:08.907Z,99825.91
2022-11-24T09:55:44.812Z,99823.84
2022-11-24T09:58:32.806Z,99821.25
2022-11-24T10:01:05.997Z,99825.91
2022-11-24T10:03:43.464Z,99824.56
2022-11-24T10:06:22.500Z,99819.41
2022-11-24T10:09:14.511Z,99826.03
2022-11-24T10:11:52.645Z,99830.44
2022-11-24T10:14:40.199Z,99832.72
2022-11-24T10:17:21.894Z,99830.91
2022-11-24T10:19:57.996Z,99832.34
2022-11-24T10:22:40.867Z,99837.22
2022-11-24T10:25:19.194Z,99846.41
2022-11-24T10:27:51.033Z,99853.81
2022-11-24T10:30:22.649Z,99852.19
2022-11-24T10:32:57.388Z,99860.09
2022-11-24T10:35:32.331Z,99851.75
2022-11-24T10:38:09.203Z,99852.47
2022-11-24T10:40:59.297Z,99852.25
2022-11-24T10:43:29.566Z,99857.38
2022-11-24T10:46:06.718Z,99845.59
2022-11-24T10:48:42.966Z,99840.09
2022-11-24T10:51:33.898Z,99843.06
2022-11-24T10:54:06.478Z,99845.66
2022-11-24T10:56:42.515Z,99847.28
2022-11-24T10:59:30.226Z,99840.31
2022-11-24T11:01:59.724Z,99831.97
2022-11-24T11:04:31.139Z,99840.78
2022-11-24T11:07:16.474Z,99849.09
2022-11-24T11:09:45.592Z,99847.78
2022-11-24T11:12:43.332Z,99856.53
2022-11-24T11:15:30.062Z,99859.72
2022-11-24T11:18:01.164Z,99857.94
2022-11-24T11:20:33.135Z,99865.56
2022-11-24T11:23:15.033Z,99858.84
2022-11-24T11:25:44.905Z,99867.16
2022-11-24T11:28:36.301Z,99854.41
2022-11-24T11:31:16.568Z,99865.06
2022-11-24T11:34:08.383Z,99863.91
2022-11-24T11:36:43.682Z,99858.34
2022-11-24T11:39:30.509Z,99862.47
2022-11-24T11:42:10.326Z,99863.44
2022-11-24T11:44:45.479Z,99864.16
2022-11-24T11:47:17.936Z,99868.09
2022-11-24T11:49:49.004Z,99869.72
2022-11-24T11:52:45.047Z,99863.97
2022-11-24T11:55:28.241Z,99863.56
2022-11-24T11:58:07.393Z,99879.00
2022-11-24T12:00:46.680Z,99881.34
2022-11-24T12:03:40.258Z,99872.81
2022-11-24T12:06:23.033Z,99894.50
2022-11-24T12:09:19.929Z,99892.66
2022-11-24T12:12:02.897Z,99889.88
2022-11-24T12:14:42.527Z,99889.41
2022-11-24T12:17:22.648Z,99889.25
2022-11-24T12:20:09.987Z,99893.16
2022-11-24T12:22:48.324Z,99888.53
2022-11-24T12:25:27.385Z,99892.19
2022-11-24T12:28:12.598Z,99897.75
2022-11-24T12:30:48.514Z,99904.69
2022-11-24T12:33:49.134Z,99904.47
2022-11-24T12:36:37.714Z,99912.09
2022-11-24T12:39:15.639Z,99903.78
2022-11-24T12:41:58.481Z,99900.31
2022-11-24T12:44:41.484Z,99888.81
2022-11-24T12:47:27.826Z,99883.50
2022-11-24T12:50:09.924Z,99877.50
2022-11-24T12:52:43.460Z,99877.03
2022-11-24T12:55:19.799Z,99867.38
2022-11-24T12:57:56.919Z,99890.22
2022-11-24T13:00:36.087Z,99904.28
2022-11-24T13:03:25.009Z,99902.47
2022-11-24T13:06:02.423Z,99915.34
2022-11-24T13:08:32.481Z,99920.41
2022-11-24T13:11:34.629Z,99919.03
2022-11-24T13:14:08.644Z,99921.81
2022-11-24T13:17:13.310Z,99927.81
2022-11-24T13:19:39.936Z,99930.38
2022-11-24T13:22:19.710Z,99944.88
2022-11-24T13:25:14.725Z,99951.81
2022-11-24T13:27:46.403Z,99952.50
2022-11-24T13:30:52.166Z,99955.03
2022-11-24T13:33:45.075Z,99966.34
2022-11-24T13:36:31.845Z,99958.47
2022-11-24T13:39:04.280Z,99960.56
2022-11-24T13:42:41.553Z,99965.66
2022-11-24T13:45:03.069Z,99978.09
2022-11-24T13:47:39.760Z,99976.25
2022-11-24T13:50:25.125Z,99973.00
2022-11-24T13:53:01.420Z,99980.88
2022-11-24T13:55:38.926Z,99988.00
2022-11-24T13:58:32.601Z,99985.00
2022-11-24T14:01:12.144Z,99990.28
2022-11-24T14:04:07.159Z,99992.38
2022-11-24T14:06:40.532Z,99989.84
2022-11-24T14:09:28.073Z,99987.78
2022-11-24T14:12:05.836Z,99994.69
2022-11-24T14:14:35.266Z,100000.25
2022-11-24T14:17:08.744Z,100002.09
2022-11-24T14:19:37.869Z,100001.59
2022-11-24T14:22:07.089Z,100006.25
2022-11-24T14:24:41.193Z,100006.25
2022-11-24T14:27:17.977Z,100006.69
2022-11-24T14:29:57.768Z,100006.25
2022-11-24T14:32:26.855Z,100005.31
2022-11-24T14:34:57.137Z,100007.59
2022-11-24T14:37:26.312Z,100019.16
2022-11-24T14:39:55.516Z,100025.16
2022-11-24T14:42:28.459Z,100020.53
2022-11-24T14:44:59.899Z,100018.22
2022-11-24T14:47:32.464Z,100026.03
2022-11-24T14:50:11.211Z,100020.75
2022-11-24T14:52:46.886Z,100024.19
2022-11-24T14:55:28.183Z,100016.16
2022-11-24T14:57:59.146Z,100018.22
2022-11-24T15:00:31.124Z,100017.72
2022-11-24T15:03:18.609Z,100020.03
2022-11-24T15:05:56.128Z,100026.03
2022-11-24T15:08:26.486Z,100021.41
2022-11-24T15:11:02.402Z,100033.44
2022-11-24T15:13:37.448Z,100038.50
2022-11-24T15:16:10.404Z,100041.72
2022-11-24T15:18:43.762Z,100045.41
2022-11-24T15:21:18.912Z,100042.22
2022-11-24T15:24:07.487Z,100042.44
2022-11-24T15:26:41.759Z,100042.66
2022-11-24T15:29:14.098Z,100043.56
2022-11-24T15:31:49.398Z,100045.41
2022-11-24T15:34:21.635Z,100043.56
2022-11-24T15:36:50.708Z,100046.81
2022-11-24T15:39:19.840Z,100048.66
2022-11-24T15:41:48.881Z,100052.34
2022-11-24T15:44:20.751Z,100039.88
2022-11-24T15:46:49.791Z,100049.56
2022-11-24T15:49:18.917Z,100045.88
2022-11-24T15:51:49.406Z,100048.63
2022-11-24T15:54:20.308Z,100052.34
2022-11-24T15:56:49.287Z,100057.44
2022-11-24T15:59:21.488Z,100054.91
2022-11-24T16:01:51.140Z,100051.88
2022-11-24T16:04:20.420Z,100063.63
2022-11-24T16:06:49.538Z,100069.41
2022-11-24T16:09:18.500Z,100075.38
2022-11-24T16:11:47.472Z,100077.22
2022-11-24T16:14:16.597Z,100076.78
2022-11-24T16:16:50.073Z,100078.59
2022-11-24T16:19:19.091Z,100081.63
2022-11-24T16:21:49.015Z,100081.16
2022-11-24T16:24:18.182Z,100078.13
2022-11-24T16:26:47.330Z,100073.06
2022-11-24T16:29:16.972Z,100075.38
2022-11-24T16:31:47.505Z,100071.91
2022-11-24T16:34:18.653Z,100071.69
2022-11-24T16:36:47.619Z,100072.41
2022-11-24T16:39:16.653Z,100082.06
2022-11-24T16:41:45.624Z,100083.91
2022-11-24T16:44:15.322Z,100085.06
2022-11-24T16:46:44.772Z,100077.69
2022-11-24T16:49:15.321Z,100083.25
2022-11-24T16:51:44.287Z,100087.38
2022-11-24T16:54:13.250Z,100092.72
2022-11-24T16:56:42.280Z,100098.25
2022-11-24T16:59:11.983Z,100093.91
2022-11-24T17:01:41.354Z,100093.63
2022-11-24T17:04:12.770Z,100094.81
2022-11-24T17:06:44.604Z,100100.34
2022-11-24T17:09:13.831Z,100100.56
2022-11-24T17:11:42.816Z,100098.72
2022-11-24T17:14:12.149Z,100094.34
2022-11-24T17:16:49.128Z,100094.13
2022-11-24T17:19:18.839Z,100100.81
2022-11-24T17:21:49.511Z,100095.47
2022-11-24T17:24:18.818Z,100098.97
2022-11-24T17:26:49.207Z,100102.88
2022-11-24T17:29:20.359Z,100099.41
2022-11-24T17:31:49.811Z,100103.56
2022-11-24T17:34:19.632Z,100102.66
2022-11-24T17:36:50.087Z,100107.72
2022-11-24T17:39:24.595Z,100111.88
2022-11-24T17:41:54.000Z,100101.72
2022-11-24T17:44:23.002Z,100109.09
2022-11-24T17:46:52.121Z,100110.47
2022-11-24T17:49:21.503Z,100110.25
2022-11-24T17:51:52.379Z,100117.16
2022-11-24T17:54:45.448Z,100112.78
2022-11-24T17:57:11.348Z,100113.94
2022-11-24T17:59:40.651Z,100119.00
2022-11-24T18:02:11.404Z,100113.72
2022-11-24T18:04:41.180Z,100112.09
2022-11-24T18:07:12.419Z,100118.31
2022-11-24T18:09:42.714Z,100116.03
2022-11-24T18:12:12.648Z,100116.47
2022-11-24T18:14:42.725Z,100121.78
2022-11-24T18:17:12.580Z,100119.66
2022-11-24T18:19:42.158Z,100132.13
2022-11-24T18:22:13.175Z,100128.47
2022-11-24T18:24:42.877Z,100131.00
2022-11-24T18:27:12.513Z,100135.38
2022-11-24T18:29:42.173Z,100140.66
2022-11-24T18:32:11.917Z,100137.44
2022-11-24T18:34:41.615Z,100139.03
2022-11-24T18:37:13.826Z,100141.16
2022-11-24T18:39:45.419Z,100133.06
2022-11-24T18:42:15.735Z,100139.97
2022-11-24T18:44:49.822Z,100141.38
2022-11-24T18:47:22.737Z,100137.69
2022-11-24T18:49:52.234Z,100143.91
2022-11-24T18:52:23.216Z,100139.53
2022-11-24T18:54:52.938Z,100143.25
2022-11-24T18:57:22.883Z,100140.91
2022-11-24T18:59:52.488Z,100143.19
2022-11-24T19:02:22.533Z,100140.19
2022-11-24T19:04:58.384Z,100140.44
2022-11-24T19:07:29.931Z,100136.72
2022-11-24T19:09:59.882Z,100143.69
2022-11-24T19:12:29.704Z,100154.97
2022-11-24T19:14:59.592Z,100149.44
2022-11-24T19:17:29.522Z,100153.38
2022-11-24T19:19:58.981Z,100159.38
2022-11-24T19:22:30.433Z,100155.22
2022-11-24T19:24:59.973Z,100160.31
2022-11-24T19:27:29.863Z,100160.56
2022-11-24T19:29:59.136Z,100162.84
2022-11-24T19:32:28.463Z,100161.25
2022-11-24T19:34:57.757Z,100158.91
2022-11-24T19:37:28.806Z,100161.44
2022-11-24T19:39:59.719Z,100163.06
2022-11-24T19:42:28.975Z,100169.53
2022-11-24T19:44:58.053Z,100158.22
2022-11-24T19:47:28.097Z,100168.84
2022-11-24T19:49:57.114Z,100165.38
2022-11-24T19:52:26.197Z,100159.88
2022-11-24T19:54:55.243Z,100167.22
2022-11-24T19:57:25.670Z,100164.47
2022-11-24T19:59:55.915Z,100161.88
2022-11-24T20:02:28.103Z,100156.16
2022-11-24T20:04:57.382Z,100166.50
2022-11-24T20:07:26.914Z,100161.22
2022-11-24T20:09:56.134Z,100162.56
2022-11-24T20:12:26.877Z,100160.47
2022-11-24T20:14:55.902Z,100171.59
2022-11-24T20:17:25.338Z,100166.03
2022-11-24T20:19:54.602Z,100168.31
2022-11-24T20:22:24.002Z,100172.94
2022-11-24T20:24:53.137Z,100176.88
2022-11-24T20:27:24.998Z,100167.22
2022-11-24T20:29:55.532Z,100178.00
2022-11-24T20:32:24.627Z,100181.72
2022-11-24T20:34:53.636Z,100186.09
2022-11-24T20:37:23.420Z,100172.72
2022-11-24T20:39:52.879Z,100182.38
2022-11-24T20:42:21.921Z,100183.78
2022-11-24T20:44:51.288Z,100182.88
2022-11-24T20:47:21.793Z,100185.41
2022-11-24T20:49:50.813Z,100190.22
2022-11-24T20:52:20.057Z,100188.59
2022-11-24T20:54:49.136Z,100190.69
2022-11-24T20:57:18.392Z,100194.81
2022-11-24T20:59:47.420Z,100195.97
2022-11-24T21:02:16.510Z,100199.44
2022-11-24T21:04:47.158Z,100203.38
2022-11-24T21:07:16.469Z,100203.09
2022-11-24T21:09:48.999Z,100207.25
2022-11-24T21:12:18.114Z,100206.56
2022-11-24T21:14:47.305Z,100215.09
2022-11-24T21:17:16.625Z,100215.56
2022-11-24T21:19:47.309Z,100214.66
2022-11-24T21:22:16.470Z,100220.22
2022-11-24T21:24:45.685Z,100222.53
2022-11-24T21:27:14.992Z,100220.47
2022-11-24T21:29:44.062Z,100233.59
2022-11-24T21:32:13.158Z,100239.59
2022-11-24T21:34:42.184Z,100235.19
2022-11-24T21:37:12.637Z,100244.88
2022-11-24T21:39:44.785Z,100242.78
2022-11-24T21:42:15.804Z,100242.28
2022-11-24T21:44:45.238Z,100240.00
2022-11-24T21:47:14.255Z,100237.91
2022-11-24T21:49:43.322Z,100246.00
2022-11-24T21:52:13.707Z,100242.75
2022-11-24T21:54:42.684Z,100238.59
2022-11-24T21:57:11.571Z,100245.09
2022-11-24T21:59:40.473Z,100251.56
2022-11-24T22:02:13.391Z,100244.59
2022-11-24T22:04:42.644Z,100249.69
2022-11-24T22:07:11.562Z,100246.91
2022-11-24T22:09:41.900Z,100250.16
2022-11-24T22:12:10.861Z,100248.75
2022-11-24T22:14:40.660Z,100258.19
2022-11-24T22:17:09.961Z,100256.09
2022-11-24T22:19:38.851Z,100254.69
2022-11-24T22:22:07.811Z,100257.69
2022-11-24T22:24:36.888Z,100264.81
2022-11-24T22:27:07.761Z,100257.19
2022-11-24T22:29:36.608Z,100260.22
2022-11-24T22:32:06.085Z,100251.91
2022-11-24T22:34:35.475Z,100248.22
2022-11-24T22:37:04.624Z,100249.59
2022-11-24T22:39:33.452Z,100258.81
2022-11-24T22:42:02.412Z,100252.81
2022-11-24T22:44:32.919Z,100254.19
2022-11-24T22:47:02.048Z,100249.59
2022-11-24T22:49:31.108Z,100247.75
2022-11-24T22:52:00.013Z,100257.19
2022-11-24T22:54:28.940Z,100253.69
2022-11-24T22:56:57.885Z,100253.03
2022-11-24T22:59:26.777Z,100259.44
2022-11-24T23:01:57.129Z,100252.78
2022-11-24T23:04:26.166Z,100269.59
2022-11-24T23:06:55.222Z,100270.28
2022-11-24T23:09:24.130Z,100269.38
2022-11-24T23:11:53.172Z,100282.19
2022-11-24T23:14:22.233Z,100281.69
2022-11-24T23:16:51.264Z,100278.97
2022-11-24T23:19:21.912Z,100280.34
2022-11-24T23:21:50.825Z,100273.88
2022-11-24T23:24:19.756Z,100275.75
2022-11-24T23:26:48.713Z,100274.59
2022-11-24T23:29:17.591Z,100274.59
2022-11-24T23:31:46.534Z,100282.63
2022-11-24T23:34:15.827Z,100291.13
2022-11-24T23:36:46.063Z,100291.84
2022-11-24T23:39:15.442Z,100292.31
2022-11-24T23:41:44.382Z,100299.25
2022-11-24T23:44:13.277Z,100302.25
2022-11-24T23:46:42.332Z,100301.78
2022-11-24T23:49:11.377Z,100301.34
2022-11-24T23:51:42.148Z,100303.88
2022-11-24T23:54:12.636Z,100312.91
2022-11-24T23:56:41.686Z,100311.50
2022-11-24T23:59:12.708Z,100310.59
